createdAt,value
2023-04-17T00:00:31.112Z,17.10
2023-04-17T00:03:22.574Z,17.40
2023-04-17T00:05:56.757Z,18.00
2023-04-17T00:08:28.558Z,17.80
2023-04-17T00:11:07.998Z,18.30
2023-04-17T00:13:40.709Z,17.90
2023-04-17T00:16:13.816Z,17.60
2023-04-17T00:18:45.710Z,18.80
2023-04-17T00:21:17.876Z,17.10
2023-04-17T00:23:49.620Z,19.10
2023-04-17T00:26:21.478Z,18.60
2023-04-17T00:28:53.922Z,17.80
2023-04-17T00:31:26.173Z,12.60
2023-04-17T00:33:59.049Z,17.80
2023-04-17T00:36:32.632Z,18.70
2023-04-17T00:39:04.363Z,17.30
2023-04-17T00:41:36.160Z,18.70
2023-04-17T00:44:08.811Z,17.60
2023-04-17T00:46:41.575Z,15.80
2023-04-17T00:49:14.075Z,19.30
2023-04-17T00:51:47.062Z,18.90
2023-04-17T00:54:20.553Z,18.10
2023-04-17T00:56:56.518Z,20.00
2023-04-17T00:59:29.411Z,19.90
2023-04-17T01:02:02.327Z,20.20
2023-04-17T01:04:34.756Z,21.00
2023-04-17T01:07:07.357Z,19.20
2023-04-17T01:09:39.613Z,19.80
2023-04-17T01:12:22.198Z,20.50
2023-04-17T01:14:55.194Z,20.10
2023-04-17T01:17:27.673Z,19.80
2023-04-17T01:20:00.297Z,19.80
2023-04-17T01:25:02.805Z,19.20
2023-04-17T01:27:39.807Z,19.40
2023-04-17T01:30:14.844Z,20.90
2023-04-17T01:32:54.411Z,20.00
2023-04-17T01:35:26.748Z,19.60
2023-04-17T01:40:30.546Z,19.80
2023-04-17T01:43:03.102Z,19.90
2023-04-17T01:45:34.933Z,20.00
2023-04-17T01:48:07.643Z,21.20
2023-04-17T01:50:39.417Z,20.40
2023-04-17T01:53:11.111Z,20.70
2023-04-17T01:55:42.783Z,20.90
2023-04-17T01:58:14.532Z,20.70
2023-04-17T02:00:48.220Z,19.70
2023-04-17T02:03:20.393Z,19.70
2023-04-17T02:05:53.252Z,20.20
2023-04-17T02:08:25.082Z,20.30
2023-04-17T02:10:59.370Z,19.80
2023-04-17T02:13:31.303Z,21.30
2023-04-17T02:16:03.119Z,19.60
2023-04-17T02:18:34.872Z,20.30
2023-04-17T02:21:06.800Z,20.40
2023-04-17T02:23:40.531Z,22.20
2023-04-17T02:26:12.496Z,19.90
2023-04-17T02:28:46.134Z,20.30
2023-04-17T02:31:18.147Z,20.10
2023-04-17T02:33:50.710Z,20.20
2023-04-17T02:36:22.839Z,13.50
2023-04-17T02:38:54.872Z,20.40
2023-04-17T02:41:26.600Z,18.40
2023-04-17T02:43:58.560Z,19.40
2023-04-17T02:46:30.661Z,18.70
2023-04-17T02:49:02.538Z,19.80
2023-04-17T02:51:36.129Z,20.40
2023-04-17T02:54:08.466Z,20.30
2023-04-17T02:56:40.333Z,20.20
2023-04-17T02:59:13.865Z,19.70
2023-04-17T03:01:46.628Z,20.20
2023-04-17T03:04:18.743Z,20.40
2023-04-17T03:06:51.501Z,20.80
2023-04-17T03:09:23.773Z,19.20
2023-04-17T03:11:56.692Z,19.30
2023-04-17T03:14:28.865Z,19.90
2023-04-17T03:17:01.011Z,20.00
2023-04-17T03:19:33.046Z,18.80
2023-04-17T03:22:05.779Z,14.50
2023-04-17T03:27:08.272Z,18.40
2023-04-17T03:29:43.210Z,18.50
2023-04-17T03:32:15.157Z,17.70
2023-04-17T03:34:47.387Z,19.60
2023-04-17T03:37:19.413Z,13.30
2023-04-17T03:39:51.382Z,18.00
2023-04-17T03:42:23.208Z,17.30
2023-04-17T03:44:56.125Z,12.50
2023-04-17T03:47:28.060Z,19.30
2023-04-17T03:50:01.444Z,18.80
2023-04-17T03:52:36.500Z,19.00
2023-04-17T03:55:10.555Z,20.20
2023-04-17T03:57:42.752Z,19.80
2023-04-17T04:00:16.239Z,18.50
2023-04-17T04:02:51.710Z,18.70
2023-04-17T04:05:30.217Z,18.40
2023-04-17T04:08:03.075Z,18.50
2023-04-17T04:10:46.892Z,19.10
2023-04-17T04:13:23.041Z,18.50
2023-04-17T04:15:58.991Z,21.30
2023-04-17T04:18:32.926Z,20.00
2023-04-17T04:21:05.824Z,19.30
2023-04-17T04:23:41.233Z,19.40
2023-04-17T04:26:13.578Z,19.30
2023-04-17T04:28:49.858Z,19.20
2023-04-17T04:31:26.488Z,19.00
2023-04-17T04:33:59.023Z,21.00
2023-04-17T04:36:36.166Z,20.30
2023-04-17T04:39:20.650Z,18.90
2023-04-17T04:41:54.121Z,21.30
2023-04-17T04:44:27.450Z,19.20
2023-04-17T04:47:01.684Z,21.20
2023-04-17T04:49:33.899Z,20.00
2023-04-17T04:52:06.671Z,20.50
2023-04-17T04:54:38.770Z,21.90
2023-04-17T04:57:10.688Z,20.50
2023-04-17T04:59:42.420Z,15.40
2023-04-17T05:02:34.669Z,22.30
2023-04-17T05:05:09.975Z,21.30
2023-04-17T05:07:42.264Z,22.00
2023-04-17T05:10:18.047Z,23.60
2023-04-17T05:12:55.396Z,23.00
2023-04-17T05:15:27.896Z,22.70
2023-04-17T05:18:00.432Z,20.60
2023-04-17T05:20:33.229Z,23.30
2023-04-17T05:23:05.900Z,23.90
2023-04-17T05:28:10.647Z,22.60
2023-04-17T05:30:43.433Z,23.60
2023-04-17T05:33:27.561Z,23.10
2023-04-17T05:36:03.107Z,24.10
2023-04-17T05:38:37.228Z,22.90
2023-04-17T05:41:11.723Z,22.50
2023-04-17T05:43:43.879Z,23.20
2023-04-17T05:46:17.581Z,23.20
2023-04-17T05:51:22.781Z,22.10
2023-04-17T05:53:54.780Z,22.50
2023-04-17T05:56:26.522Z,23.80
2023-04-17T05:58:58.578Z,22.70
2023-04-17T06:01:32.589Z,21.70
2023-04-17T06:04:04.687Z,24.00
2023-04-17T06:06:37.442Z,22.40
2023-04-17T06:09:11.244Z,26.10
2023-04-17T06:11:43.650Z,24.00
2023-04-17T06:14:15.882Z,24.20
2023-04-17T06:16:48.305Z,23.90
2023-04-17T06:19:22.493Z,23.70
2023-04-17T06:21:54.546Z,21.40
2023-04-17T06:24:26.671Z,18.90
2023-04-17T06:26:59.981Z,23.00
2023-04-17T06:29:32.088Z,22.70
2023-04-17T06:32:04.039Z,23.50
2023-04-17T06:34:38.176Z,21.90
2023-04-17T06:37:15.634Z,20.80
2023-04-17T06:39:47.829Z,22.80
2023-04-17T06:42:20.528Z,22.40
2023-04-17T06:44:57.214Z,24.40
2023-04-17T06:47:29.266Z,21.90
2023-04-17T06:50:01.524Z,21.60
2023-04-17T06:52:33.475Z,22.60
2023-04-17T06:55:05.844Z,23.40
2023-04-17T06:57:39.237Z,22.40
2023-04-17T07:00:14.041Z,21.00
2023-04-17T07:02:46.436Z,20.60
2023-04-17T07:05:19.033Z,20.30
2023-04-17T07:07:50.890Z,17.60
2023-04-17T07:10:22.803Z,14.80
2023-04-17T07:12:55.169Z,22.10
2023-04-17T07:15:30.445Z,19.10
2023-04-17T07:18:02.468Z,19.50
2023-04-17T07:20:34.504Z,19.40
2023-04-17T07:23:06.383Z,21.70
2023-04-17T07:25:38.469Z,18.30
2023-04-17T07:28:10.859Z,19.80
2023-04-17T07:30:43.287Z,20.00
2023-04-17T07:33:15.228Z,19.00
2023-04-17T07:35:47.222Z,19.60
2023-04-17T07:38:19.122Z,11.90
2023-04-17T07:40:50.921Z,17.70
2023-04-17T07:43:22.808Z,18.30
2023-04-17T07:45:55.005Z,17.40
2023-04-17T07:48:27.304Z,19.30
2023-04-17T07:51:02.139Z,18.50
2023-04-17T07:53:36.004Z,18.50
2023-04-17T07:56:08.335Z,19.60
2023-04-17T07:58:40.148Z,18.60
2023-04-17T08:01:12.309Z,18.10
2023-04-17T08:03:45.423Z,18.10
2023-04-17T08:06:17.507Z,20.10
2023-04-17T08:08:49.730Z,18.20
2023-04-17T08:11:22.306Z,20.00
2023-04-17T08:13:54.960Z,18.60
2023-04-17T08:16:26.725Z,18.40
2023-04-17T08:18:58.591Z,14.00
2023-04-17T08:21:31.064Z,18.10
2023-04-17T08:24:05.928Z,17.60
2023-04-17T08:26:38.004Z,18.40
2023-04-17T08:29:09.969Z,18.60
2023-04-17T08:31:41.971Z,18.50
2023-04-17T08:34:15.518Z,17.80
2023-04-17T08:36:47.980Z,19.20
2023-04-17T08:39:19.889Z,19.10
2023-04-17T08:42:00.280Z,19.60
2023-04-17T08:44:33.185Z,19.90
2023-04-17T08:49:37.194Z,19.20
2023-04-17T08:52:09.793Z,19.40
2023-04-17T08:57:12.770Z,19.80
2023-04-17T08:59:47.048Z,18.30
2023-04-17T09:02:19.051Z,17.90
2023-04-17T09:04:53.832Z,19.10
2023-04-17T09:07:31.724Z,19.90
2023-04-17T09:10:03.514Z,17.90
2023-04-17T09:12:41.702Z,19.50
2023-04-17T09:15:19.886Z,20.80
2023-04-17T09:17:51.645Z,20.20
2023-04-17T09:20:23.479Z,18.60
2023-04-17T09:23:02.948Z,18.40
2023-04-17T09:25:34.852Z,18.30
2023-04-17T09:28:14.699Z,18.90
2023-04-17T09:30:46.585Z,17.90
2023-04-17T09:33:20.725Z,17.90
2023-04-17T09:35:52.645Z,17.90
2023-04-17T09:38:39.970Z,18.30
2023-04-17T09:41:25.468Z,16.60
2023-04-17T09:44:01.791Z,16.00
2023-04-17T09:46:46.111Z,17.60
2023-04-17T09:49:21.037Z,18.10
2023-04-17T09:51:53.675Z,18.50
2023-04-17T09:54:26.368Z,17.50
2023-04-17T09:56:58.648Z,19.10
2023-04-17T09:59:31.445Z,22.40
2023-04-17T10:02:04.957Z,19.30
2023-04-17T10:04:37.765Z,18.80
2023-04-17T10:07:10.210Z,17.10
2023-04-17T10:09:45.633Z,17.80
2023-04-17T10:12:19.478Z,17.30
2023-04-17T10:14:53.006Z,17.30
2023-04-17T10:17:31.611Z,16.70
2023-04-17T10:20:30.881Z,16.40
2023-04-17T10:23:22.849Z,16.80
2023-04-17T10:26:43.235Z,17.90
2023-04-17T10:29:15.504Z,17.60
2023-04-17T10:32:29.073Z,18.40
2023-04-17T10:35:03.350Z,18.10
2023-04-17T10:38:05.517Z,17.40
2023-04-17T10:40:39.161Z,17.20
2023-04-17T10:43:14.806Z,18.30
2023-04-17T10:46:03.066Z,17.00
2023-04-17T10:48:38.069Z,17.00
2023-04-17T10:51:43.910Z,17.20
2023-04-17T10:54:16.311Z,17.40
2023-04-17T10:56:48.848Z,17.40
2023-04-17T11:02:04.662Z,17.40
2023-04-17T11:04:37.144Z,17.20
2023-04-17T11:07:08.991Z,12.10
2023-04-17T11:09:42.558Z,17.70
2023-04-17T11:12:14.655Z,17.20
2023-04-17T11:14:46.630Z,14.30
2023-04-17T11:17:18.492Z,19.70
2023-04-17T11:19:50.699Z,21.70
2023-04-17T11:22:23.657Z,21.80
2023-04-17T11:24:55.442Z,17.80
2023-04-17T11:27:28.560Z,16.60
2023-04-17T11:30:01.143Z,28.00
2023-04-17T11:32:38.202Z,29.90
2023-04-17T11:35:11.706Z,22.70
2023-04-17T11:38:06.880Z,22.40
2023-04-17T11:40:43.243Z,19.60
2023-04-17T11:43:15.719Z,18.30
2023-04-17T11:45:50.937Z,18.30
2023-04-17T11:48:27.615Z,16.70
2023-04-17T11:51:02.153Z,15.00
2023-04-17T11:53:37.376Z,15.90
2023-04-17T11:56:17.127Z,13.40
2023-04-17T11:58:51.539Z,12.30
2023-04-17T12:01:25.342Z,14.10
2023-04-17T12:03:58.695Z,13.60
2023-04-17T12:06:39.852Z,14.40
2023-04-17T12:09:24.037Z,12.90
2023-04-17T12:11:55.862Z,12.90
2023-04-17T12:14:27.686Z,16.20
2023-04-17T12:17:01.164Z,15.90
2023-04-17T12:19:33.684Z,13.70
2023-04-17T12:22:06.171Z,12.60
2023-04-17T12:24:38.164Z,12.20
2023-04-17T12:27:10.381Z,11.60
2023-04-17T12:29:44.518Z,13.80
2023-04-17T12:32:17.769Z,13.20
2023-04-17T12:34:49.765Z,12.00
2023-04-17T12:37:22.526Z,12.60
2023-04-17T12:42:24.852Z,13.50
2023-04-17T12:44:57.042Z,12.80
2023-04-17T12:47:29.576Z,9.30
2023-04-17T12:52:33.038Z,12.30
2023-04-17T12:55:05.126Z,12.40
2023-04-17T12:57:38.409Z,9.40
2023-04-17T13:00:12.713Z,11.70
2023-04-17T13:02:44.705Z,12.80
2023-04-17T13:05:16.998Z,11.00
2023-04-17T13:07:49.045Z,10.30
2023-04-17T13:10:21.689Z,11.30
2023-04-17T13:12:53.783Z,11.60
2023-04-17T13:17:57.091Z,12.00
2023-04-17T13:20:29.393Z,13.90
2023-04-17T13:23:01.571Z,12.80
2023-04-17T13:25:34.789Z,10.60
2023-04-17T13:28:06.803Z,15.00
2023-04-17T13:30:39.787Z,15.30
2023-04-17T13:33:11.863Z,13.30
2023-04-17T13:35:43.736Z,13.70
2023-04-17T13:38:16.267Z,13.00
2023-04-17T13:40:48.250Z,14.20
2023-04-17T13:43:20.086Z,12.10
2023-04-17T13:45:55.401Z,13.90
2023-04-17T13:48:27.785Z,16.30
2023-04-17T13:50:59.676Z,16.20
2023-04-17T13:53:31.684Z,15.30
2023-04-17T13:56:03.791Z,12.40
2023-04-17T13:58:36.039Z,11.90
2023-04-17T14:01:08.925Z,14.50
2023-04-17T14:03:44.593Z,13.90
2023-04-17T14:06:18.966Z,12.30
2023-04-17T14:08:51.054Z,13.60
2023-04-17T14:11:23.016Z,13.40
2023-04-17T14:13:54.904Z,13.70
2023-04-17T14:16:27.613Z,13.60
2023-04-17T14:19:12.284Z,11.10
2023-04-17T14:21:45.981Z,12.50
2023-04-17T14:24:18.281Z,14.90
2023-04-17T14:26:50.427Z,12.10
2023-04-17T14:29:22.503Z,11.00
2023-04-17T14:31:55.915Z,10.50
2023-04-17T14:34:28.747Z,10.00
2023-04-17T14:37:02.625Z,10.70
2023-04-17T14:39:34.843Z,10.30
2023-04-17T14:42:07.054Z,10.50
2023-04-17T14:44:39.792Z,9.60
2023-04-17T14:47:13.087Z,9.20
2023-04-17T14:49:48.778Z,10.30
2023-04-17T14:52:24.113Z,10.00
2023-04-17T14:54:57.558Z,9.50
2023-04-17T14:57:30.589Z,9.50
2023-04-17T15:00:03.781Z,9.40
2023-04-17T15:02:38.765Z,9.40
2023-04-17T15:05:12.648Z,9.50
2023-04-17T15:07:47.303Z,9.60
2023-04-17T15:10:19.335Z,9.50
2023-04-17T15:12:51.237Z,10.40
2023-04-17T15:15:23.229Z,10.00
2023-04-17T15:17:55.714Z,9.50
2023-04-17T15:20:28.968Z,9.80
2023-04-17T15:23:01.251Z,9.60
2023-04-17T15:25:34.357Z,9.00
2023-04-17T15:28:06.297Z,9.70
2023-04-17T15:30:38.269Z,7.50
2023-04-17T15:33:10.620Z,8.60
2023-04-17T15:35:42.537Z,8.60
2023-04-17T15:38:14.351Z,8.30
2023-04-17T15:40:47.477Z,8.90
2023-04-17T15:43:21.998Z,8.20
2023-04-17T15:45:55.525Z,8.90
2023-04-17T15:48:27.579Z,7.90
2023-04-17T15:51:00.845Z,8.50
2023-04-17T15:53:34.449Z,8.00
2023-04-17T15:56:07.536Z,8.80
2023-04-17T15:58:39.390Z,8.00
2023-04-17T16:01:11.791Z,7.60
2023-04-17T16:03:44.036Z,7.50
2023-04-17T16:06:16.781Z,8.10
2023-04-17T16:08:49.003Z,7.50
2023-04-17T16:11:21.302Z,6.90
2023-04-17T16:13:53.436Z,7.30
2023-04-17T16:16:25.703Z,7.60
2023-04-17T16:18:57.832Z,8.10
2023-04-17T16:21:31.251Z,8.10
2023-04-17T16:24:04.933Z,8.20
2023-04-17T16:26:37.947Z,8.70
2023-04-17T16:29:10.372Z,7.80
2023-04-17T16:31:42.944Z,7.60
2023-04-17T16:34:15.384Z,8.10
2023-04-17T16:36:47.447Z,7.50
2023-04-17T16:39:19.734Z,8.30
2023-04-17T16:41:52.985Z,8.30
2023-04-17T16:44:26.032Z,8.70
2023-04-17T16:47:12.613Z,7.80
2023-04-17T16:49:45.769Z,7.10
2023-04-17T16:52:18.274Z,7.30
2023-04-17T16:54:50.805Z,8.50
2023-04-17T16:57:22.833Z,7.90
2023-04-17T16:59:54.977Z,7.40
2023-04-17T17:02:27.239Z,7.80
2023-04-17T17:04:59.454Z,8.30
2023-04-17T17:07:31.667Z,8.30
2023-04-17T17:10:03.929Z,7.80
2023-04-17T17:12:36.333Z,7.90
2023-04-17T17:15:10.795Z,8.90
2023-04-17T17:17:44.400Z,7.60
2023-04-17T17:20:17.506Z,8.00
2023-04-17T17:22:49.965Z,8.60
2023-04-17T17:25:22.936Z,7.80
2023-04-17T17:27:56.337Z,9.30
2023-04-17T17:30:28.995Z,7.70
2023-04-17T17:33:08.691Z,8.00
2023-04-17T17:35:43.207Z,8.30
2023-04-17T17:38:18.978Z,7.90
2023-04-17T17:40:53.375Z,8.00
2023-04-17T17:43:25.584Z,8.60
2023-04-17T17:45:58.324Z,8.80
2023-04-17T17:48:30.846Z,8.70
2023-04-17T17:51:02.972Z,7.80
2023-04-17T17:53:35.332Z,7.80
2023-04-17T17:56:08.201Z,8.50
2023-04-17T17:58:40.278Z,8.20
2023-04-17T18:01:12.359Z,8.70
2023-04-17T18:03:45.485Z,8.70
2023-04-17T18:06:19.760Z,8.40
2023-04-17T18:08:52.845Z,7.20
2023-04-17T18:11:24.803Z,8.40
2023-04-17T18:13:57.078Z,5.40
2023-04-17T18:16:31.635Z,9.00
2023-04-17T18:19:04.961Z,9.30
2023-04-17T18:21:37.466Z,9.20
2023-04-17T18:24:10.871Z,9.00
2023-04-17T18:26:43.681Z,9.00
2023-04-17T18:29:15.878Z,12.00
2023-04-17T18:31:48.002Z,16.00
2023-04-17T18:34:23.108Z,22.00
2023-04-17T18:36:56.268Z,18.60
2023-04-17T18:39:28.484Z,21.00
2023-04-17T18:42:01.752Z,23.60
2023-04-17T18:44:35.239Z,21.80
2023-04-17T18:47:07.685Z,19.50
2023-04-17T18:49:40.255Z,15.90
2023-04-17T18:52:12.140Z,15.70
2023-04-17T18:54:44.313Z,15.40
2023-04-17T18:57:16.785Z,21.70
2023-04-17T19:02:19.929Z,13.90
2023-04-17T19:07:23.912Z,12.20
2023-04-17T19:09:56.892Z,12.30
2023-04-17T19:12:30.507Z,13.00
2023-04-17T19:15:02.436Z,11.30
2023-04-17T19:17:34.538Z,11.90
2023-04-17T19:20:08.210Z,13.10
2023-04-17T19:22:40.593Z,15.20
2023-04-17T19:25:13.378Z,15.30
2023-04-17T19:30:16.880Z,12.90
2023-04-17T19:32:49.154Z,16.90
2023-04-17T19:35:21.512Z,16.30
2023-04-17T19:37:53.790Z,17.00
2023-04-17T19:40:26.238Z,12.90
2023-04-17T19:45:35.820Z,14.80
2023-04-17T19:48:09.077Z,17.60
2023-04-17T19:50:41.285Z,15.90
2023-04-17T19:53:13.165Z,17.60
2023-04-17T19:55:45.348Z,17.90
2023-04-17T19:58:17.889Z,15.60
2023-04-17T20:00:50.247Z,16.00
2023-04-17T20:03:22.365Z,15.80
2023-04-17T20:05:54.994Z,17.20
2023-04-17T20:08:27.406Z,19.10
2023-04-17T20:10:59.268Z,17.20
2023-04-17T20:13:31.311Z,17.10
2023-04-17T20:16:03.094Z,16.90
2023-04-17T20:18:35.168Z,24.30
2023-04-17T20:21:07.484Z,18.60
2023-04-17T20:23:39.698Z,21.30
2023-04-17T20:26:11.782Z,20.50
2023-04-17T20:28:43.748Z,16.50
2023-04-17T20:31:16.004Z,15.20
2023-04-17T20:33:48.008Z,16.20
2023-04-17T20:36:20.225Z,13.90
2023-04-17T20:38:52.727Z,18.40
2023-04-17T20:41:24.747Z,15.60
2023-04-17T20:44:00.936Z,15.10
2023-04-17T20:46:33.021Z,15.30
2023-04-17T20:49:05.061Z,15.40
2023-04-17T20:51:36.909Z,17.20
2023-04-17T20:54:08.764Z,15.60
2023-04-17T20:56:40.926Z,17.70
2023-04-17T20:59:12.762Z,13.30
2023-04-17T21:01:44.895Z,15.10
2023-04-17T21:04:16.933Z,10.30
2023-04-17T21:06:49.944Z,13.40
2023-04-17T21:11:55.360Z,13.90
2023-04-17T21:14:27.984Z,13.20
2023-04-17T21:19:34.849Z,13.20
2023-04-17T21:22:06.669Z,14.30
2023-04-17T21:24:40.957Z,10.30
2023-04-17T21:27:12.843Z,14.20
2023-04-17T21:29:44.634Z,14.80
2023-04-17T21:32:16.421Z,14.80
2023-04-17T21:34:48.161Z,10.00
2023-04-17T21:37:19.930Z,12.70
2023-04-17T21:39:52.096Z,11.30
2023-04-17T21:42:24.061Z,12.90
2023-04-17T21:44:56.249Z,12.20
2023-04-17T21:47:28.006Z,12.60
2023-04-17T21:50:00.510Z,12.40
2023-04-17T21:52:32.328Z,13.30
2023-04-17T21:55:05.624Z,9.20
2023-04-17T21:57:37.486Z,12.10
2023-04-17T22:00:12.620Z,8.70
2023-04-17T22:02:44.812Z,13.30
2023-04-17T22:05:16.954Z,13.20
2023-04-17T22:07:54.996Z,9.80
2023-04-17T22:10:27.499Z,12.60
2023-04-17T22:12:59.751Z,13.80
2023-04-17T22:15:31.864Z,14.70
2023-04-17T22:18:03.693Z,11.90
2023-04-17T22:20:35.463Z,13.20
2023-04-17T22:23:07.862Z,12.90
2023-04-17T22:25:39.546Z,11.60
2023-04-17T22:28:11.383Z,11.70
2023-04-17T22:30:43.394Z,9.10
2023-04-17T22:33:15.541Z,12.90
2023-04-17T22:35:47.387Z,11.50
2023-04-17T22:38:21.101Z,12.30
2023-04-17T22:40:52.964Z,11.40
2023-04-17T22:43:24.749Z,11.10
2023-04-17T22:45:57.343Z,11.80
2023-04-17T22:51:01.096Z,10.70
2023-04-17T22:56:04.912Z,9.60
2023-04-17T22:58:36.807Z,9.80
2023-04-17T23:01:08.805Z,11.60
2023-04-17T23:03:41.184Z,10.80
2023-04-17T23:06:12.941Z,10.00
2023-04-17T23:08:44.828Z,10.70
2023-04-17T23:11:16.719Z,10.80
2023-04-17T23:13:48.555Z,10.50
2023-04-17T23:16:20.858Z,7.50
2023-04-17T23:18:52.683Z,10.20
2023-04-17T23:21:25.310Z,10.70
2023-04-17T23:23:57.769Z,11.90
2023-04-17T23:26:29.915Z,11.50
2023-04-17T23:29:01.692Z,11.70
2023-04-17T23:31:33.599Z,11.50
2023-04-17T23:34:05.473Z,10.80
2023-04-17T23:36:37.410Z,10.60
2023-04-17T23:39:09.389Z,9.80
2023-04-17T23:41:42.810Z,11.40
2023-04-17T23:44:14.902Z,10.70
2023-04-17T23:46:47.019Z,10.10
2023-04-17T23:49:18.849Z,10.50
2023-04-17T23:51:50.571Z,11.10
2023-04-17T23:54:23.534Z,10.80
2023-04-17T23:56:55.694Z,10.40
2023-04-17T23:59:27.703Z,7.50
